Time;durP1;ratioP1;P1;durP2;ratioP2;P2;SDS_P1;SDS_P2;PMS_P1;PMS_P2;Temp;Humidity;BMP_temperature;BMP_pressure;BME280_temperature;BME280_humidity;BME280_pressure;Samples;Min_cycle;Max_cycle;Signal;HPM_P1;HPM_P2
2022/08/09 00:00:06;;;;;;;3.27;1.60;;;17.10;99.90;;;;;;5074449;28;20214;-42
2022/08/09 00:02:32;;;;;;;5.13;1.57;;;17.00;99.90;;;;;;5074285;28;20551;-43
2022/08/09 00:04:58;;;;;;;3.33;1.83;;;17.00;99.90;;;;;;5074105;28;20175;-42
2022/08/09 00:07:24;;;;;;;2.33;1.43;;;17.00;99.90;;;;;;5074375;28;20554;-41
2022/08/09 00:09:50;;;;;;;3.03;1.90;;;16.90;99.90;;;;;;5074039;28;20182;-43
2022/08/09 00:12:15;;;;;;;2.70;1.60;;;16.90;99.90;;;;;;5074248;28;20196;-43
2022/08/09 00:14:41;;;;;;;8.47;1.70;;;16.80;99.90;;;;;;5074485;28;20176;-43
2022/08/09 00:17:07;;;;;;;5.73;1.93;;;16.80;99.90;;;;;;5074065;28;20180;-43
2022/08/09 00:19:32;;;;;;;3.77;1.90;;;16.80;99.90;;;;;;5073995;28;20171;-41
2022/08/09 00:21:58;;;;;;;4.50;1.70;;;16.80;99.90;;;;;;5073889;28;20187;-42
2022/08/09 00:24:28;;;;;;;5.17;1.70;;;16.70;99.90;;;;;;5073859;28;20176;-42
2022/08/09 00:26:54;;;;;;;2.93;1.60;;;16.70;99.90;;;;;;5073410;28;20195;-42
2022/08/09 00:29:20;;;;;;;3.13;1.80;;;16.60;99.90;;;;;;5073736;28;20225;-42
2022/08/09 00:31:45;;;;;;;6.60;2.07;;;16.70;99.90;;;;;;5073641;28;20199;-42
2022/08/09 00:34:11;;;;;;;2.10;1.30;;;16.60;99.90;;;;;;5073713;28;20183;-41
2022/08/09 00:36:37;;;;;;;3.23;1.80;;;16.60;99.90;;;;;;5073755;28;20248;-42
2022/08/09 00:39:02;;;;;;;5.53;1.70;;;16.60;99.90;;;;;;5072485;28;20222;-43
2022/08/09 00:41:28;;;;;;;2.47;1.70;;;16.50;99.90;;;;;;5074290;28;20200;-41
2022/08/09 00:43:54;;;;;;;4.97;1.50;;;16.50;99.90;;;;;;5074216;28;20644;-42
2022/08/09 00:46:20;;;;;;;2.17;1.87;;;16.50;99.90;;;;;;5074339;28;20221;-42
2022/08/09 00:48:46;;;;;;;5.63;1.73;;;16.50;99.90;;;;;;5072640;28;20181;-42
2022/08/09 00:51:15;;;;;;;3.30;1.87;;;16.50;99.90;;;;;;5073470;28;20192;-42
2022/08/09 00:53:41;;;;;;;3.63;1.90;;;16.50;99.90;;;;;;5073542;28;20654;-43
2022/08/09 00:56:07;;;;;;;4.53;2.00;;;16.50;99.90;;;;;;5073753;28;20207;-41
2022/08/09 00:58:34;;;;;;;5.27;1.63;;;16.50;99.90;;;;;;5073746;28;20203;-42
2022/08/09 01:01:05;;;;;;;7.97;2.47;;;16.50;99.90;;;;;;5073388;28;20274;-43
2022/08/09 01:03:34;;;;;;;4.03;1.73;;;16.50;99.90;;;;;;5073621;28;20164;-41
2022/08/09 01:06:29;;;;;;;5.47;2.23;;;16.50;99.90;;;;;;5073340;28;20215;-43
2022/08/09 01:09:21;;;;;;;3.87;2.13;;;16.50;99.90;;;;;;5073621;28;20171;-42
2022/08/09 01:12:05;;;;;;;3.93;1.90;;;16.50;99.90;;;;;;5073181;28;20246;-44
2022/08/09 01:14:48;;;;;;;4.30;2.20;;;16.50;99.90;;;;;;5073613;28;20625;-42
2022/08/09 01:17:36;;;;;;;2.80;2.10;;;16.40;99.90;;;;;;5073273;28;20171;-44
2022/08/09 01:20:14;;;;;;;4.10;2.00;;;16.40;99.90;;;;;;5071827;28;20207;-42
2022/08/09 01:23:00;;;;;;;4.70;1.93;;;16.40;99.90;;;;;;5073477;28;20519;-43
2022/08/09 01:25:35;;;;;;;4.43;1.97;;;16.40;99.90;;;;;;5073495;28;20160;-42
2022/08/09 01:28:03;;;;;;;2.60;2.00;;;16.40;99.90;;;;;;5073457;28;20171;-42
2022/08/09 01:30:30;;;;;;;4.27;1.90;;;16.40;99.90;;;;;;5073003;28;20206;-43
2022/08/09 01:32:57;;;;;;;4.63;2.00;;;16.30;99.90;;;;;;5073052;28;20203;-42
2022/08/09 01:35:41;;;;;;;5.70;2.10;;;16.30;99.90;;;;;;5073323;28;20267;-42
2022/08/09 01:38:11;;;;;;;10.33;2.60;;;16.20;99.90;;;;;;5073104;28;20191;-43
2022/08/09 01:40:42;;;;;;;4.53;2.37;;;16.20;99.90;;;;;;5076326;28;20204;-42
2022/08/09 01:43:09;;;;;;;5.17;2.10;;;16.20;99.90;;;;;;5077250;28;20178;-42
2022/08/09 01:45:35;;;;;;;5.70;2.43;;;16.20;99.90;;;;;;5077127;28;20184;-40
2022/08/09 01:48:02;;;;;;;3.93;2.37;;;16.20;99.90;;;;;;5076982;28;20537;-43
2022/08/09 01:50:29;;;;;;;6.07;2.70;;;16.20;99.90;;;;;;5077009;28;20238;-43
2022/08/09 01:52:56;;;;;;;5.40;2.50;;;16.20;99.90;;;;;;5076953;28;20211;-44
2022/08/09 01:55:24;;;;;;;3.33;2.10;;;16.10;99.90;;;;;;5076997;28;20628;-42
2022/08/09 01:57:54;;;;;;;5.10;2.60;;;16.10;99.90;;;;;;5075398;28;20667;-41
2022/08/09 02:00:20;;;;;;;5.50;2.30;;;16.00;99.90;;;;;;5076509;28;20198;-41
2022/08/09 02:02:49;;;;;;;5.30;2.20;;;16.00;99.90;;;;;;5076582;28;20175;-42
2022/08/09 02:05:18;;;;;;;4.30;2.30;;;16.00;99.90;;;;;;5076591;28;20178;-43
2022/08/09 02:07:51;;;;;;;4.37;2.47;;;16.00;99.90;;;;;;5076500;28;20206;-43
2022/08/09 02:10:21;;;;;;;6.17;2.30;;;16.00;99.90;;;;;;5076645;28;20195;-42
2022/08/09 02:12:47;;;;;;;6.17;2.33;;;16.00;99.90;;;;;;5076534;28;20306;-41
2022/08/09 02:15:17;;;;;;;4.53;2.30;;;16.00;99.90;;;;;;5076406;28;20175;-43
2022/08/09 02:17:45;;;;;;;3.27;2.40;;;16.00;99.90;;;;;;5076607;28;20202;-44
2022/08/09 02:20:11;;;;;;;5.30;2.20;;;15.90;99.90;;;;;;5076168;28;20735;-43
2022/08/09 02:22:41;;;;;;;4.47;2.20;;;16.00;99.90;;;;;;5076537;28;20186;-42
2022/08/09 02:25:14;;;;;;;3.73;2.20;;;16.00;99.90;;;;;;5076639;28;20178;-43
2022/08/09 02:27:46;;;;;;;4.10;2.20;;;15.90;99.90;;;;;;5076718;28;20164;-42
2022/08/09 02:30:13;;;;;;;4.27;2.47;;;15.90;99.90;;;;;;5076732;28;20206;-43
2022/08/09 02:32:44;;;;;;;4.10;2.07;;;15.80;99.90;;;;;;5076130;28;20195;-43
2022/08/09 02:35:25;;;;;;;4.13;2.20;;;15.80;99.90;;;;;;5076445;28;20645;-44
2022/08/09 02:37:55;;;;;;;5.93;2.53;;;15.70;99.90;;;;;;5076185;28;20580;-42
2022/08/09 02:40:22;;;;;;;3.63;2.20;;;15.70;99.90;;;;;;5076360;28;20188;-44
2022/08/09 02:42:50;;;;;;;3.43;2.30;;;15.70;99.90;;;;;;5076088;28;20260;-43
2022/08/09 02:45:23;;;;;;;5.47;2.97;;;15.60;99.90;;;;;;5075820;28;20203;-44
2022/08/09 02:47:52;;;;;;;5.33;2.20;;;15.60;99.90;;;;;;5075784;28;20171;-44
2022/08/09 02:50:42;;;;;;;4.70;2.70;;;15.60;99.90;;;;;;5075204;28;20223;-44
2022/08/09 02:53:12;;;;;;;2.47;2.20;;;15.60;99.90;;;;;;5076426;28;20600;-46
2022/08/09 02:55:42;;;;;;;4.87;2.50;;;15.60;99.90;;;;;;5075627;28;20156;-43
2022/08/09 02:58:09;;;;;;;5.67;2.53;;;15.60;99.90;;;;;;5075794;28;20175;-42
2022/08/09 03:00:37;;;;;;;4.07;2.20;;;15.60;99.90;;;;;;5075447;28;20195;-45
2022/08/09 03:03:05;;;;;;;4.27;2.30;;;15.60;99.90;;;;;;5075050;28;20245;-45
2022/08/09 03:05:32;;;;;;;7.30;2.07;;;15.70;99.90;;;;;;5075391;28;20179;-44
2022/08/09 03:08:00;;;;;;;4.57;2.33;;;15.70;99.90;;;;;;5075415;28;20240;-45
2022/08/09 03:10:27;;;;;;;5.33;2.60;;;15.70;99.90;;;;;;5076113;28;20218;-42
2022/08/09 03:12:55;;;;;;;3.93;2.33;;;15.70;99.90;;;;;;5075227;28;20229;-44
2022/08/09 03:15:22;;;;;;;4.93;2.13;;;15.70;99.90;;;;;;5075259;28;20181;-45
2022/08/09 03:17:48;;;;;;;3.63;2.20;;;15.70;99.90;;;;;;5075456;28;20184;-45
2022/08/09 03:20:15;;;;;;;7.27;2.50;;;15.70;99.90;;;;;;5075281;28;20191;-43
2022/08/09 03:22:45;;;;;;;3.40;2.37;;;15.70;99.90;;;;;;5075391;28;20171;-45
2022/08/09 03:25:12;;;;;;;3.87;2.60;;;15.70;99.90;;;;;;5075324;28;20576;-43
2022/08/09 03:27:39;;;;;;;8.00;2.20;;;15.80;99.90;;;;;;5075087;28;20549;-44
2022/08/09 03:30:05;;;;;;;5.97;2.50;;;15.70;99.90;;;;;;5075160;28;20200;-45
2022/08/09 03:32:33;;;;;;;2.87;2.10;;;15.80;99.90;;;;;;5074847;28;20563;-45
2022/08/09 03:34:59;;;;;;;7.20;2.50;;;15.70;99.90;;;;;;5075070;28;20172;-44
2022/08/09 03:37:27;;;;;;;2.67;2.37;;;15.70;99.90;;;;;;5074754;28;20191;-45
2022/08/09 03:39:52;;;;;;;5.23;2.33;;;15.70;99.90;;;;;;5074968;28;20680;-44
2022/08/09 03:42:18;;;;;;;3.50;2.50;;;15.70;99.90;;;;;;5075036;28;20282;-41
2022/08/09 03:44:44;;;;;;;3.63;2.47;;;15.60;99.90;;;;;;5074986;28;20204;-41
2022/08/09 03:47:09;;;;;;;4.00;2.07;;;15.60;99.90;;;;;;5074846;28;20543;-41
2022/08/09 03:49:36;;;;;;;3.50;2.40;;;15.60;99.90;;;;;;5074823;28;20229;-41
2022/08/09 03:52:04;;;;;;;4.50;2.27;;;15.50;99.90;;;;;;5074313;28;20211;-42
2022/08/09 03:54:33;;;;;;;5.67;2.43;;;15.60;99.90;;;;;;5074417;28;20711;-42
2022/08/09 03:57:02;;;;;;;3.40;2.20;;;15.60;99.90;;;;;;5074389;28;20182;-42
2022/08/09 03:59:28;;;;;;;3.80;2.03;;;15.50;99.90;;;;;;5074396;28;20647;-43
2022/08/09 04:01:56;;;;;;;3.83;2.40;;;15.50;99.90;;;;;;5073543;28;20200;-40
2022/08/09 04:04:22;;;;;;;6.87;2.23;;;15.40;99.90;;;;;;5074275;28;20175;-41
2022/08/09 04:06:48;;;;;;;4.80;2.30;;;15.40;99.90;;;;;;5074192;28;20589;-43
2022/08/09 04:09:14;;;;;;;3.43;2.30;;;15.40;99.90;;;;;;5074200;28;20179;-42
2022/08/09 04:12:09;;;;;;;5.60;2.47;;;15.40;99.90;;;;;;5074046;28;20210;-43
2022/08/09 04:14:38;;;;;;;4.40;2.10;;;15.30;99.90;;;;;;5074638;28;20553;-43
2022/08/09 04:17:05;;;;;;;3.30;2.00;;;15.30;99.90;;;;;;5074066;28;20175;-42
2022/08/09 04:19:30;;;;;;;5.97;2.27;;;15.30;99.90;;;;;;5073972;28;20267;-42
2022/08/09 04:21:56;;;;;;;5.00;2.30;;;15.30;99.90;;;;;;5073884;28;20225;-40
2022/08/09 04:24:22;;;;;;;3.33;2.20;;;15.30;99.90;;;;;;5074132;28;20175;-42
2022/08/09 04:26:47;;;;;;;3.90;2.47;;;15.20;99.90;;;;;;5072581;28;20183;-42
2022/08/09 04:29:13;;;;;;;5.87;2.23;;;15.20;99.90;;;;;;5072621;28;20261;-41
2022/08/09 04:31:38;;;;;;;3.93;2.37;;;15.20;99.90;;;;;;5073791;28;20202;-43
2022/08/09 04:34:04;;;;;;;5.80;2.10;;;15.20;99.90;;;;;;5073811;28;20172;-42
2022/08/09 04:36:31;;;;;;;3.37;2.17;;;15.20;99.90;;;;;;5073620;28;20190;-42
2022/08/09 04:38:59;;;;;;;5.47;2.50;;;15.20;99.90;;;;;;5074025;28;20168;-42
2022/08/09 04:41:25;;;;;;;8.07;2.53;;;15.20;99.90;;;;;;5073590;28;20222;-42
2022/08/09 04:43:52;;;;;;;3.63;1.97;;;15.20;99.90;;;;;;5073905;28;20665;-42
2022/08/09 04:46:18;;;;;;;4.60;2.47;;;15.20;99.90;;;;;;5073629;28;20179;-43
2022/08/09 04:48:43;;;;;;;3.40;2.03;;;15.20;99.90;;;;;;5073859;28;20259;-42
2022/08/09 04:51:09;;;;;;;7.27;2.20;;;15.20;99.90;;;;;;5073431;28;20223;-42
2022/08/09 04:53:35;;;;;;;7.80;2.40;;;15.30;99.90;;;;;;5073787;28;20713;-42
2022/08/09 04:56:00;;;;;;;6.17;2.67;;;15.20;99.90;;;;;;5073536;28;20179;-43
2022/08/09 04:58:27;;;;;;;5.33;2.47;;;15.30;99.90;;;;;;5073556;28;20175;-42
2022/08/09 05:00:54;;;;;;;7.23;2.43;;;15.30;99.90;;;;;;5073388;28;20199;-41
2022/08/09 05:03:19;;;;;;;2.93;2.63;;;15.30;99.90;;;;;;5073379;28;20704;-41
2022/08/09 05:05:46;;;;;;;3.50;2.43;;;15.30;99.90;;;;;;5073587;28;20218;-43
2022/08/09 05:08:12;;;;;;;2.83;2.03;;;15.30;99.90;;;;;;5073536;28;20183;-44
2022/08/09 05:10:38;;;;;;;6.10;2.47;;;15.40;99.90;;;;;;5073197;28;20200;-41
2022/08/09 05:13:03;;;;;;;7.50;2.33;;;15.40;99.90;;;;;;5073119;28;20199;-41
2022/08/09 05:15:29;;;;;;;5.73;2.77;;;15.40;99.90;;;;;;5073330;28;20175;-41
2022/08/09 05:17:54;;;;;;;4.77;2.33;;;15.40;99.90;;;;;;5073449;28;20182;-41
2022/08/09 05:20:20;;;;;;;3.50;2.47;;;15.40;99.90;;;;;;5073172;28;20267;-42
2022/08/09 05:22:47;;;;;;;3.93;2.60;;;15.40;99.90;;;;;;5073358;28;20717;-43
2022/08/09 05:25:13;;;;;;;5.97;2.53;;;15.50;99.90;;;;;;5073230;28;20177;-43
2022/08/09 05:27:39;;;;;;;4.67;2.77;;;15.60;99.90;;;;;;5073513;28;20179;-41
2022/08/09 05:30:05;;;;;;;5.20;2.97;;;15.60;99.90;;;;;;5072970;28;20610;-42
2022/08/09 05:32:30;;;;;;;7.70;3.03;;;15.60;99.90;;;;;;5073600;28;20199;-44
2022/08/09 05:34:56;;;;;;;4.17;2.63;;;15.70;99.90;;;;;;5073610;28;20594;-41
2022/08/09 05:37:21;;;;;;;5.40;2.83;;;15.70;99.90;;;;;;5072896;28;20549;-43
2022/08/09 05:39:47;;;;;;;5.87;3.07;;;15.80;99.90;;;;;;5072894;28;20168;-41
2022/08/09 05:42:14;;;;;;;4.63;3.20;;;15.80;99.90;;;;;;5073197;28;20187;-40
2022/08/09 05:44:39;;;;;;;6.47;2.73;;;15.90;99.90;;;;;;5073180;28;20184;-42
2022/08/09 05:47:05;;;;;;;4.93;3.00;;;15.90;99.90;;;;;;5071665;28;20647;-41
2022/08/09 05:49:30;;;;;;;6.90;3.20;;;16.00;99.90;;;;;;5070276;28;20192;-42
2022/08/09 05:51:56;;;;;;;4.23;2.73;;;16.00;99.90;;;;;;5072747;28;20211;-40
2022/08/09 05:54:21;;;;;;;4.70;3.03;;;16.10;99.90;;;;;;5073197;28;20213;-43
2022/08/09 05:56:47;;;;;;;5.63;2.70;;;16.10;99.90;;;;;;5073120;28;20172;-42
2022/08/09 05:59:13;;;;;;;7.30;3.13;;;16.20;99.90;;;;;;5072824;28;20176;-42
2022/08/09 06:01:38;;;;;;;7.40;3.17;;;16.30;99.90;;;;;;5073006;28;20662;-41
2022/08/09 06:04:04;;;;;;;4.50;2.77;;;16.40;99.90;;;;;;5073078;28;20168;-41
2022/08/09 06:06:29;;;;;;;8.13;3.77;;;16.50;99.90;;;;;;5072765;28;20171;-41
2022/08/09 06:08:55;;;;;;;7.73;3.23;;;16.50;99.90;;;;;;5073108;28;20707;-41
2022/08/09 06:11:20;;;;;;;9.07;3.20;;;16.60;99.90;;;;;;5072702;28;20576;-43
2022/08/09 06:13:46;;;;;;;5.20;3.57;;;16.70;99.90;;;;;;5072619;28;20249;-42
2022/08/09 06:16:12;;;;;;;7.47;3.17;;;16.80;99.90;;;;;;5072953;28;20183;-42
2022/08/09 06:18:37;;;;;;;3.47;3.13;;;16.80;99.90;;;;;;5072963;28;20210;-41
2022/08/09 06:21:05;;;;;;;7.13;3.13;;;16.90;99.90;;;;;;5072574;28;20267;-42
2022/08/09 06:23:32;;;;;;;5.80;2.90;;;17.00;99.90;;;;;;5072854;28;20207;-43
2022/08/09 06:25:57;;;;;;;4.77;2.80;;;17.10;99.90;;;;;;5074999;28;20171;-41
2022/08/09 06:28:23;;;;;;;5.73;2.83;;;17.20;99.90;;;;;;5076106;28;20236;-43
2022/08/09 06:30:49;;;;;;;5.47;2.77;;;17.30;99.90;;;;;;5076098;28;20253;-42
2022/08/09 06:33:14;;;;;;;5.10;2.50;;;17.40;99.90;;;;;;5076005;28;20203;-42
2022/08/09 06:35:40;;;;;;;5.67;3.10;;;17.50;99.90;;;;;;5076054;28;20191;-43
2022/08/09 06:38:06;;;;;;;7.47;3.27;;;17.60;99.90;;;;;;5075974;28;20289;-41
2022/08/09 06:40:32;;;;;;;7.97;3.20;;;17.70;99.90;;;;;;5075810;28;20192;-42
2022/08/09 06:42:57;;;;;;;7.20;3.20;;;17.80;99.90;;;;;;5076137;28;20644;-42
2022/08/09 06:45:23;;;;;;;7.00;3.50;;;17.90;99.90;;;;;;5076062;28;20188;-42
2022/08/09 06:47:49;;;;;;;11.27;3.60;;;18.00;99.90;;;;;;5076067;28;20184;-43
2022/08/09 06:50:15;;;;;;;7.13;2.80;;;18.10;99.90;;;;;;5075715;28;20211;-43
2022/08/09 06:52:47;;;;;;;9.63;3.47;;;18.20;99.90;;;;;;5075573;28;20206;-42
2022/08/09 06:55:18;;;;;;;5.83;3.03;;;18.30;99.90;;;;;;5076240;28;20156;-41
2022/08/09 06:57:43;;;;;;;6.00;2.90;;;18.40;99.90;;;;;;5075621;28;20666;-42
2022/08/09 07:00:10;;;;;;;7.37;2.63;;;18.50;99.90;;;;;;5075846;28;20262;-42
2022/08/09 07:02:36;;;;;;;7.37;2.90;;;18.70;99.90;;;;;;5074470;28;20238;-41
2022/08/09 07:05:02;;;;;;;5.10;3.00;;;18.80;99.90;;;;;;5075991;28;20179;-43
2022/08/09 07:07:28;;;;;;;6.10;2.87;;;18.90;99.90;;;;;;5075689;28;20186;-43
2022/08/09 07:09:53;;;;;;;6.77;2.63;;;18.90;99.90;;;;;;5075337;28;20636;-43
2022/08/09 07:12:19;;;;;;;13.67;2.93;;;19.00;99.90;;;;;;5075244;28;20538;-42
2022/08/09 07:14:45;;;;;;;5.67;2.47;;;19.10;99.90;;;;;;5075482;28;20172;-43
2022/08/09 07:17:11;;;;;;;9.10;2.43;;;19.20;99.90;;;;;;5075247;28;20293;-43
2022/08/09 07:19:36;;;;;;;4.37;2.50;;;19.40;99.90;;;;;;5075168;28;20207;-42
2022/08/09 07:22:02;;;;;;;6.83;2.47;;;19.50;99.90;;;;;;5075316;28;20289;-40
2022/08/09 07:24:29;;;;;;;4.83;2.70;;;19.50;99.90;;;;;;5075404;28;20179;-43
2022/08/09 07:26:56;;;;;;;6.10;2.67;;;19.60;99.90;;;;;;5075278;28;20190;-42
2022/08/09 07:29:21;;;;;;;3.47;2.30;;;19.70;99.90;;;;;;5075272;28;20172;-42
2022/08/09 07:31:47;;;;;;;7.17;2.53;;;19.90;99.90;;;;;;5075098;28;20217;-43
2022/08/09 07:34:12;;;;;;;4.40;2.13;;;19.90;99.90;;;;;;5074869;28;20172;-43
2022/08/09 07:36:39;;;;;;;4.00;2.67;;;20.00;99.90;;;;;;5073684;28;20188;-42
2022/08/09 07:39:05;;;;;;;7.00;2.70;;;20.00;99.90;;;;;;5073539;28;20175;-44
2022/08/09 07:41:31;;;;;;;4.33;2.70;;;20.10;99.90;;;;;;5074895;28;20602;-43
2022/08/09 07:43:57;;;;;;;10.90;2.30;;;20.30;99.90;;;;;;5075203;28;20184;-43
2022/08/09 07:46:23;;;;;;;4.80;2.73;;;20.30;99.90;;;;;;5075500;28;20519;-42
2022/08/09 07:48:48;;;;;;;7.10;2.97;;;20.50;99.90;;;;;;5075207;28;20251;-43
2022/08/09 07:51:14;;;;;;;9.53;3.33;;;20.60;99.90;;;;;;5075480;28;20278;-45
2022/08/09 07:53:39;;;;;;;4.07;2.93;;;20.70;99.90;;;;;;5074469;28;20286;-47
2022/08/09 07:56:05;;;;;;;4.07;2.13;;;20.80;99.90;;;;;;5074759;28;20328;-43
2022/08/09 07:58:31;;;;;;;5.13;2.40;;;20.90;99.90;;;;;;5074405;28;20640;-45
2022/08/09 08:00:56;;;;;;;3.30;2.30;;;21.00;99.90;;;;;;5074278;28;20199;-45
2022/08/09 08:03:22;;;;;;;5.83;2.43;;;21.10;99.90;;;;;;5074826;28;20176;-45
2022/08/09 08:05:47;;;;;;;3.73;2.23;;;21.30;99.90;;;;;;5074264;28;20190;-45
2022/08/09 08:08:13;;;;;;;3.80;2.37;;;21.40;99.90;;;;;;5074466;28;20189;-44
2022/08/09 08:10:39;;;;;;;8.10;2.17;;;21.60;99.90;;;;;;5075172;28;20616;-45
2022/08/09 08:13:04;;;;;;;2.77;2.00;;;21.70;99.90;;;;;;5074295;28;20737;-44
2022/08/09 08:15:30;;;;;;;6.30;2.47;;;21.80;99.90;;;;;;5074103;28;20711;-46
2022/08/09 08:17:55;;;;;;;4.30;2.37;;;21.90;99.90;;;;;;5074004;28;20175;-45
2022/08/09 08:20:26;;;;;;;6.63;2.50;;;22.00;99.90;;;;;;5073914;28;20200;-45
2022/08/09 08:22:51;;;;;;;4.00;2.37;;;22.00;99.90;;;;;;5074223;28;20237;-46
2022/08/09 08:25:17;;;;;;;3.63;2.23;;;22.10;99.90;;;;;;5073903;28;20183;-45
2022/08/09 08:27:43;;;;;;;5.60;2.20;;;22.20;99.90;;;;;;5073883;28;20245;-45
2022/08/09 08:30:10;;;;;;;4.53;2.00;;;22.20;99.90;;;;;;5073963;28;20683;-44
2022/08/09 08:32:35;;;;;;;5.40;2.47;;;22.30;99.90;;;;;;5074040;28;20249;-47
2022/08/09 08:35:01;;;;;;;6.07;2.20;;;22.40;99.90;;;;;;5073792;28;20180;-41
2022/08/09 08:37:27;;;;;;;6.67;2.83;;;22.40;99.90;;;;;;5073637;28;20191;-40
2022/08/09 08:39:53;;;;;;;2.83;2.07;;;22.60;99.90;;;;;;5073617;28;20183;-42
2022/08/09 08:42:20;;;;;;;7.40;1.90;;;22.60;99.90;;;;;;5073896;28;20749;-40
2022/08/09 08:44:49;;;;;;;12.63;2.17;;;22.70;99.90;;;;;;5073904;28;20183;-42
2022/08/09 08:47:15;;;;;;;3.23;2.00;;;22.80;99.90;;;;;;5073796;28;20666;-41
2022/08/09 08:49:41;;;;;;;2.40;1.87;;;22.80;99.90;;;;;;5073304;28;20254;-41
2022/08/09 08:52:07;;;;;;;2.73;1.90;;;22.90;99.90;;;;;;5073406;28;20286;-40
2022/08/09 08:54:34;;;;;;;5.23;2.30;;;23.00;99.90;;;;;;5074064;28;20242;-40
2022/08/09 08:57:01;;;;;;;3.20;1.77;;;23.00;99.90;;;;;;5073468;28;20184;-41
2022/08/09 08:59:27;;;;;;;6.43;1.90;;;23.10;99.90;;;;;;5073373;28;20656;-40
2022/08/09 09:01:53;;;;;;;2.60;2.30;;;23.30;99.90;;;;;;5073443;28;20206;-42
2022/08/09 09:04:20;;;;;;;6.70;1.90;;;23.40;99.90;;;;;;5073390;28;20183;-41
2022/08/09 09:06:48;;;;;;;5.83;2.20;;;23.50;99.90;;;;;;5073567;28;20728;-41
2022/08/09 09:09:14;;;;;;;4.00;2.03;;;23.60;99.90;;;;;;5073571;28;20175;-41
2022/08/09 09:11:41;;;;;;;6.13;2.20;;;23.60;99.90;;;;;;5073463;28;20202;-40
2022/08/09 09:14:16;;;;;;;3.67;2.13;;;23.50;99.90;;;;;;5073616;28;20255;-41
2022/08/09 09:16:42;;;;;;;5.47;2.03;;;23.50;99.90;;;;;;5073575;28;20262;-39
2022/08/09 09:19:10;;;;;;;2.67;1.93;;;23.50;99.90;;;;;;5073185;28;20678;-43
2022/08/09 09:21:36;;;;;;;3.80;2.27;;;23.60;99.90;;;;;;5073463;28;20625;-40
2022/08/09 09:24:04;;;;;;;7.23;2.23;;;23.70;99.90;;;;;;5073540;28;20187;-41
2022/08/09 09:26:30;;;;;;;4.80;2.20;;;23.80;99.90;;;;;;5073955;28;20607;-42
2022/08/09 09:28:56;;;;;;;5.90;2.20;;;23.80;99.90;;;;;;5073360;28;20224;-42
2022/08/09 09:31:23;;;;;;;3.87;2.33;;;23.90;99.90;;;;;;5073050;28;20285;-41
2022/08/09 09:33:49;;;;;;;5.17;2.30;;;24.00;99.90;;;;;;5073074;28;20542;-41
2022/08/09 09:36:15;;;;;;;8.00;2.23;;;24.10;99.90;;;;;;5073026;28;20255;-41
2022/08/09 09:38:49;;;;;;;3.20;2.30;;;24.20;99.90;;;;;;5073317;28;20302;-41
2022/08/09 09:41:26;;;;;;;5.03;1.90;;;24.20;99.90;;;;;;5073231;28;20286;-40
2022/08/09 09:43:53;;;;;;;3.23;2.20;;;24.30;99.90;;;;;;5073015;28;20176;-41
2022/08/09 09:46:19;;;;;;;4.73;2.50;;;24.40;99.90;;;;;;5072975;28;20206;-43
2022/08/09 09:48:56;;;;;;;3.87;2.20;;;24.40;99.90;;;;;;5072952;28;20647;-42
2022/08/09 09:51:21;;;;;;;5.30;2.67;;;24.40;99.90;;;;;;5072872;28;20195;-40
2022/08/09 09:54:05;;;;;;;2.90;2.40;;;24.50;99.90;;;;;;5072855;28;20297;-42
2022/08/09 09:56:36;;;;;;;4.27;2.57;;;24.60;99.90;;;;;;5073215;28;20612;-41
2022/08/09 09:59:03;;;;;;;4.77;2.00;;;24.70;99.90;;;;;;5072895;28;20685;-41
2022/08/09 10:01:29;;;;;;;7.23;2.90;;;24.70;99.90;;;;;;5076089;28;20561;-40
2022/08/09 10:03:56;;;;;;;5.53;2.63;;;24.70;99.90;;;;;;5076891;28;20192;-42
2022/08/09 10:06:21;;;;;;;5.23;2.47;;;24.70;99.90;;;;;;5076653;28;20175;-43
2022/08/09 10:08:49;;;;;;;7.53;2.40;;;24.80;99.90;;;;;;5076746;28;20521;-43
2022/08/09 10:11:25;;;;;;;4.90;2.47;;;24.80;99.90;;;;;;5058617;28;20199;-42
2022/08/09 10:13:52;;;;;;;6.47;2.40;;;24.90;99.90;;;;;;5076649;28;20256;-41
2022/08/09 10:16:26;;;;;;;4.17;2.10;;;25.10;99.90;;;;;;5076670;28;20258;-40
2022/08/09 10:18:54;;;;;;;8.17;2.10;;;25.10;99.90;;;;;;5076629;28;20179;-42
2022/08/09 10:21:21;;;;;;;10.93;2.20;;;25.20;99.90;;;;;;5076289;28;20287;-41
2022/08/09 10:23:47;;;;;;;6.97;2.30;;;25.20;99.90;;;;;;5076429;28;20590;-41
2022/08/09 10:26:13;;;;;;;4.03;2.33;;;25.30;99.90;;;;;;5076213;28;20199;-42
2022/08/09 10:28:40;;;;;;;4.90;2.17;;;25.40;99.90;;;;;;5076182;28;20595;-41
2022/08/09 10:31:08;;;;;;;6.70;2.40;;;25.50;99.90;;;;;;5076303;28;20268;-42
2022/08/09 10:33:34;;;;;;;3.40;1.97;;;25.50;99.90;;;;;;5076006;28;20666;-43
2022/08/09 10:36:00;;;;;;;6.10;2.03;;;25.40;99.90;;;;;;5076215;28;20270;-42
2022/08/09 10:38:27;;;;;;;5.17;2.30;;;25.50;99.90;;;;;;5075888;28;20195;-41
2022/08/09 10:40:52;;;;;;;2.33;1.90;;;25.50;99.90;;;;;;5075861;28;20200;-43
2022/08/09 10:43:18;;;;;;;9.83;2.00;;;25.50;99.90;;;;;;5075885;28;20176;-45
2022/08/09 10:45:44;;;;;;;3.37;1.80;;;25.60;99.90;;;;;;5076135;28;20179;-42
2022/08/09 10:48:12;;;;;;;5.33;2.30;;;25.80;99.90;;;;;;5075879;28;20547;-41
2022/08/09 10:53:49;;;;;;;5.63;2.33;;;25.90;99.90;;;;;;5075944;28;20198;-42
2022/08/09 10:56:17;;;;;;;7.43;2.17;;;25.90;99.90;;;;;;5075947;28;20215;-43
2022/08/09 10:58:43;;;;;;;2.90;2.40;;;26.00;99.90;;;;;;5075870;28;20186;-41
2022/08/09 11:01:31;;;;;;;4.27;2.30;;;25.90;99.90;;;;;;5075584;28;20199;-43
2022/08/09 11:04:08;;;;;;;4.73;1.87;;;25.90;99.90;;;;;;5075779;28;20179;-41
2022/08/09 11:06:38;;;;;;;4.83;2.20;;;25.90;99.90;;;;;;5075809;28;20183;-42
2022/08/09 11:09:05;;;;;;;3.83;2.37;;;26.00;99.90;;;;;;5075757;28;20507;-43
2022/08/09 11:11:53;;;;;;;3.17;2.50;;;26.10;99.90;;;;;;5074961;28;20253;-41
2022/08/09 11:15:07;;;;;;;2.43;2.07;;;26.10;99.50;;;;;;5075556;28;20275;-41
2022/08/09 11:17:35;;;;;;;4.10;2.30;;;26.00;99.80;;;;;;5033317;28;20193;-42
2022/08/09 11:20:09;;;;;;;3.53;2.27;;;26.20;99.70;;;;;;5033382;28;20188;-42
2022/08/09 11:22:41;;;;;;;4.73;2.10;;;26.30;99.30;;;;;;5055796;28;20199;-43
2022/08/09 11:25:13;;;;;;;2.70;1.93;;;26.30;99.50;;;;;;5075085;28;20190;-43
2022/08/09 11:27:47;;;;;;;5.00;2.00;;;26.30;99.90;;;;;;5075273;28;20204;-42
2022/08/09 11:30:29;;;;;;;5.63;2.17;;;26.50;99.00;;;;;;5075187;28;20592;-43
2022/08/09 11:33:15;;;;;;;5.22;2.20;;;26.50;99.00;;;;;;5075170;28;20210;-41
2022/08/09 11:36:00;;;;;;;4.28;2.15;;;26.50;98.30;;;;;;5075074;28;20172;-43
2022/08/09 11:38:31;;;;;;;3.58;1.80;;;26.40;98.40;;;;;;5074762;28;20274;-43
2022/08/09 11:41:13;;;;;;;5.50;2.13;;;26.40;98.60;;;;;;5075009;28;20199;-42
2022/08/09 11:43:50;;;;;;;4.03;2.20;;;26.50;99.30;;;;;;5075306;28;20160;-41
2022/08/09 11:46:16;;;;;;;2.47;1.83;;;26.60;98.60;;;;;;5073502;28;20175;-43
2022/08/09 11:48:54;;;;;;;10.02;2.30;;;26.70;98.60;;;;;;5074947;28;20183;-39
2022/08/09 11:51:21;;;;;;;2.83;1.92;;;26.80;98.20;;;;;;5074742;28;20252;-41
2022/08/09 11:53:49;;;;;;;4.38;2.30;;;26.90;98.40;;;;;;5074681;28;20249;-41
2022/08/09 11:56:14;;;;;;;4.75;2.30;;;27.00;98.30;;;;;;5074801;28;20168;-41
2022/08/09 11:58:48;;;;;;;3.65;2.20;;;27.00;97.80;;;;;;5074638;28;20662;-43
2022/08/09 12:01:16;;;;;;;3.83;2.10;;;27.00;97.90;;;;;;5074891;28;20301;-41
2022/08/09 12:03:44;;;;;;;5.55;2.40;;;27.10;97.60;;;;;;5074447;28;20179;-40
2022/08/09 12:06:25;;;;;;;6.30;2.08;;;27.10;97.00;;;;;;5074300;28;20176;-43
2022/08/09 12:08:54;;;;;;;5.78;2.00;;;27.00;97.10;;;;;;5074548;28;20164;-42
2022/08/09 12:11:22;;;;;;;7.38;2.30;;;27.10;96.80;;;;;;5074417;28;20207;-41
2022/08/09 12:13:56;;;;;;;7.22;2.20;;;27.00;96.50;;;;;;5074019;28;20668;-42
2022/08/09 12:16:34;;;;;;;8.35;2.75;;;27.00;98.00;;;;;;5073998;28;20228;-42
2022/08/09 12:19:01;;;;;;;7.22;2.63;;;27.20;97.30;;;;;;5073977;28;20539;-42
2022/08/09 12:21:58;;;;;;;3.80;2.22;;;27.20;96.80;;;;;;5073896;28;20196;-41
2022/08/09 12:24:23;;;;;;;5.82;1.92;;;27.20;96.40;;;;;;5072598;28;20187;-42
2022/08/09 12:26:50;;;;;;;3.63;2.20;;;27.20;97.60;;;;;;5074156;28;20586;-43
2022/08/09 12:29:17;;;;;;;3.60;2.42;;;27.30;96.50;;;;;;5074915;28;20603;-43
2022/08/09 12:31:44;;;;;;;7.03;2.10;;;27.50;98.30;;;;;;5073744;28;20266;-43
2022/08/09 12:34:10;;;;;;;3.40;2.25;;;27.70;96.90;;;;;;5073833;28;20191;-42
2022/08/09 12:36:52;;;;;;;2.70;1.75;;;28.00;97.70;;;;;;5073736;28;20198;-43
2022/08/09 12:39:18;;;;;;;6.72;1.90;;;28.10;94.60;;;;;;5073716;28;20250;-41
2022/08/09 12:41:43;;;;;;;3.55;1.92;;;28.10;95.10;;;;;;5073585;28;20246;-42
2022/08/09 12:44:10;;;;;;;4.53;2.25;;;28.20;94.60;;;;;;5073799;28;20203;-41
2022/08/09 12:46:43;;;;;;;4.65;1.90;;;28.20;94.70;;;;;;5073876;28;20632;-42
2022/08/09 12:49:10;;;;;;;6.97;2.17;;;28.10;95.40;;;;;;5073927;28;20178;-42
2022/08/09 12:51:36;;;;;;;2.75;2.10;;;28.20;95.70;;;;;;5073512;28;20234;-41
2022/08/09 12:54:03;;;;;;;4.07;1.60;;;28.30;94.00;;;;;;5073397;28;20252;-41